createdAt,value
2023-03-11T00:01:11.668Z,99484.34
2023-03-11T00:03:40.118Z,99493.19
2023-03-11T00:06:12.316Z,99501.06
2023-03-11T00:08:41.286Z,99506.44
2023-03-11T00:11:11.020Z,99512.66
2023-03-11T00:13:43.681Z,99499.00
2023-03-11T00:16:23.284Z,99518.91
2023-03-11T00:18:54.250Z,99495.78
2023-03-11T00:21:22.538Z,99494.22
2023-03-11T00:23:50.921Z,99508.88
2023-03-11T00:26:24.710Z,99498.84
2023-03-11T00:28:57.286Z,99513.78
2023-03-11T00:31:31.021Z,99492.69
2023-03-11T00:34:05.298Z,99507.38
2023-03-11T00:36:38.809Z,99510.88
2023-03-11T00:39:08.554Z,99500.75
2023-03-11T00:41:41.202Z,99512.50
2023-03-11T00:44:15.738Z,99514.03
2023-03-11T00:46:49.033Z,99508.03
2023-03-11T00:49:20.233Z,99510.94
2023-03-11T00:51:48.825Z,99527.66
2023-03-11T00:54:20.184Z,99514.94
2023-03-11T00:56:50.711Z,99509.34
2023-03-11T00:59:23.106Z,99518.00
2023-03-11T01:01:58.260Z,99496.44
2023-03-11T01:04:27.149Z,99496.50
2023-03-11T01:06:57.465Z,99542.72
2023-03-11T01:09:30.109Z,99514.94
2023-03-11T01:11:58.838Z,99537.81
2023-03-11T01:14:27.078Z,99538.75
2023-03-11T01:16:58.870Z,99529.19
2023-03-11T01:19:29.318Z,99558.88
2023-03-11T01:21:57.621Z,99540.47
2023-03-11T01:24:30.492Z,99548.53
2023-03-11T01:27:00.434Z,99553.34
2023-03-11T01:29:31.839Z,99548.59
2023-03-11T01:32:00.762Z,99549.38
2023-03-11T01:34:30.514Z,99542.31
2023-03-11T01:37:04.902Z,99560.66
2023-03-11T01:39:33.318Z,99543.91
2023-03-11T01:42:05.630Z,99539.50
2023-03-11T01:44:39.650Z,99561.53
2023-03-11T01:47:13.928Z,99554.59
2023-03-11T01:49:43.903Z,99553.88
2023-03-11T01:52:13.532Z,99554.88
2023-03-11T01:54:53.323Z,99561.19
2023-03-11T01:57:22.914Z,99551.69
2023-03-11T01:59:58.222Z,99573.41
2023-03-11T02:02:41.975Z,99569.16
2023-03-11T02:05:12.113Z,99576.44
2023-03-11T02:07:42.869Z,99591.28
2023-03-11T02:10:18.300Z,99600.78
2023-03-11T02:12:49.255Z,99553.00
2023-03-11T02:15:25.932Z,99558.88
2023-03-11T02:17:57.195Z,99566.47
2023-03-11T02:20:46.737Z,99584.88
2023-03-11T02:23:18.969Z,99578.00
2023-03-11T02:26:02.665Z,99565.75
2023-03-11T02:28:35.155Z,99558.94
2023-03-11T02:31:03.606Z,99544.22
2023-03-11T02:33:38.650Z,99563.53
2023-03-11T02:36:28.318Z,99561.81
2023-03-11T02:38:59.085Z,99563.84
2023-03-11T02:41:28.699Z,99579.56
2023-03-11T02:43:59.548Z,99570.16
2023-03-11T02:46:28.238Z,99573.78
2023-03-11T02:48:59.891Z,99577.78
2023-03-11T02:51:29.410Z,99580.38
2023-03-11T02:54:01.783Z,99562.06
2023-03-11T02:56:31.888Z,99588.28
2023-03-11T02:59:00.796Z,99584.81
2023-03-11T03:01:31.020Z,99582.25
2023-03-11T03:04:00.636Z,99596.44
2023-03-11T03:06:35.818Z,99578.38
2023-03-11T03:09:04.777Z,99604.47
2023-03-11T03:11:34.397Z,99605.38
2023-03-11T03:14:03.036Z,99615.91
2023-03-11T03:16:31.800Z,99615.94
2023-03-11T03:19:01.027Z,99607.31
2023-03-11T03:21:28.891Z,99601.19
2023-03-11T03:23:59.897Z,99601.34
2023-03-11T03:26:29.362Z,99604.00
2023-03-11T03:28:58.098Z,99600.69
2023-03-11T03:31:28.334Z,99593.75
2023-03-11T03:34:01.080Z,99592.25
2023-03-11T03:36:29.798Z,99634.09
2023-03-11T03:39:02.565Z,99624.47
2023-03-11T03:41:34.828Z,99642.03
2023-03-11T03:44:06.536Z,99647.31
2023-03-11T03:46:38.896Z,99631.63
2023-03-11T03:49:10.793Z,99631.63
2023-03-11T03:51:44.876Z,99618.69
2023-03-11T03:54:21.486Z,99627.44
2023-03-11T03:56:50.802Z,99631.72
2023-03-11T03:59:19.396Z,99631.84
2023-03-11T04:01:54.463Z,99621.47
2023-03-11T04:04:27.958Z,99625.88
2023-03-11T04:06:58.112Z,99640.78
2023-03-11T04:09:28.598Z,99621.69
2023-03-11T04:11:59.679Z,99640.78
2023-03-11T04:14:28.549Z,99642.50
2023-03-11T04:17:01.849Z,99624.31
2023-03-11T04:19:31.187Z,99646.97
2023-03-11T04:22:00.512Z,99647.88
2023-03-11T04:24:30.075Z,99654.88
2023-03-11T04:27:00.019Z,99650.56
2023-03-11T04:29:30.107Z,99639.38
2023-03-11T04:32:01.242Z,99649.81
2023-03-11T04:34:32.588Z,99643.69
2023-03-11T04:37:01.329Z,99620.59
2023-03-11T04:39:36.559Z,99654.34
2023-03-11T04:42:08.136Z,99644.31
2023-03-11T04:44:37.958Z,99644.09
2023-03-11T04:47:07.211Z,99651.00
2023-03-11T04:49:38.015Z,99647.44
2023-03-11T04:52:06.720Z,99647.50
2023-03-11T04:54:35.023Z,99645.72
2023-03-11T04:57:05.225Z,99654.59
2023-03-11T04:59:34.202Z,99650.19
2023-03-11T05:02:03.925Z,99669.44
2023-03-11T05:04:33.650Z,99668.59
2023-03-11T05:07:02.815Z,99659.03
2023-03-11T05:09:32.838Z,99646.78
2023-03-11T05:12:02.045Z,99642.56
2023-03-11T05:14:32.879Z,99662.44
2023-03-11T05:17:01.566Z,99664.31
2023-03-11T05:19:35.157Z,99670.41
2023-03-11T05:22:15.499Z,99672.22
2023-03-11T05:24:47.446Z,99668.88
2023-03-11T05:27:21.542Z,99685.38
2023-03-11T05:29:54.281Z,99665.38
2023-03-11T05:32:25.920Z,99669.63
2023-03-11T05:34:55.226Z,99678.31
2023-03-11T05:37:23.265Z,99671.41
2023-03-11T05:39:54.656Z,99679.13
2023-03-11T05:42:23.945Z,99668.78
2023-03-11T05:44:55.351Z,99685.19
2023-03-11T05:47:26.026Z,99675.72
2023-03-11T05:49:56.331Z,99682.75
2023-03-11T05:52:27.230Z,99693.97
2023-03-11T05:54:58.195Z,99708.00
2023-03-11T05:57:29.558Z,99704.50
2023-03-11T05:59:58.735Z,99700.25
2023-03-11T06:02:27.482Z,99699.44
2023-03-11T06:04:56.802Z,99701.16
2023-03-11T06:07:26.169Z,99707.25
2023-03-11T06:09:54.811Z,99694.16
2023-03-11T06:12:24.314Z,99690.53
2023-03-11T06:15:10.939Z,99692.28
2023-03-11T06:17:42.127Z,99691.47
2023-03-11T06:20:15.663Z,99697.66
2023-03-11T06:22:48.372Z,99718.66
2023-03-11T06:25:18.632Z,99717.69
2023-03-11T06:27:53.388Z,99725.50
2023-03-11T06:30:25.532Z,99726.25
2023-03-11T06:33:01.020Z,99731.47
2023-03-11T06:35:29.657Z,99726.34
2023-03-11T06:37:59.183Z,99700.25
2023-03-11T06:40:29.973Z,99715.09
2023-03-11T06:42:58.239Z,99729.03
2023-03-11T06:45:28.552Z,99733.31
2023-03-11T06:47:56.642Z,99764.69
2023-03-11T06:50:26.657Z,99762.81
2023-03-11T06:52:57.623Z,99755.72
2023-03-11T06:55:26.629Z,99756.63
2023-03-11T06:57:55.568Z,99748.00
2023-03-11T07:00:25.448Z,99723.66
2023-03-11T07:03:02.962Z,99778.53
2023-03-11T07:05:36.446Z,99759.47
2023-03-11T07:08:11.081Z,99768.91
2023-03-11T07:10:41.396Z,99781.03
2023-03-11T07:13:10.022Z,99775.75
2023-03-11T07:15:37.888Z,99766.22
2023-03-11T07:18:07.794Z,99769.50
2023-03-11T07:20:36.714Z,99773.09
2023-03-11T07:23:06.419Z,99779.94
2023-03-11T07:25:35.668Z,99805.22
2023-03-11T07:28:06.289Z,99815.59
2023-03-11T07:30:35.463Z,99823.53
2023-03-11T07:33:04.176Z,99792.03
2023-03-11T07:35:32.993Z,99804.22
2023-03-11T07:38:01.678Z,99831.84
2023-03-11T07:40:30.020Z,99834.38
2023-03-11T07:42:58.855Z,99828.22
2023-03-11T07:45:27.073Z,99820.34
2023-03-11T07:48:00.407Z,99836.03
2023-03-11T07:50:28.784Z,99838.59
2023-03-11T07:52:58.607Z,99837.59
2023-03-11T07:55:27.326Z,99845.22
2023-03-11T07:57:55.855Z,99852.94
2023-03-11T08:00:24.774Z,99845.03
2023-03-11T08:02:53.890Z,99856.16
2023-03-11T08:05:23.765Z,99836.13
2023-03-11T08:07:51.690Z,99864.66
2023-03-11T08:10:20.204Z,99860.31
2023-03-11T08:12:50.013Z,99863.78
2023-03-11T08:15:24.981Z,99862.13
2023-03-11T08:17:55.950Z,99863.97
2023-03-11T08:20:24.265Z,99865.63
2023-03-11T08:22:58.025Z,99869.66
2023-03-11T08:25:40.347Z,99854.91
2023-03-11T08:28:17.527Z,99860.88
2023-03-11T08:30:49.904Z,99866.03
2023-03-11T08:33:21.990Z,99867.41
2023-03-11T08:35:59.430Z,99861.22
2023-03-11T08:38:28.369Z,99861.44
2023-03-11T08:41:16.217Z,99879.63
2023-03-11T08:44:01.529Z,99869.81
2023-03-11T08:46:42.933Z,99870.50
2023-03-11T08:49:24.730Z,99857.34
2023-03-11T08:51:59.829Z,99871.03
2023-03-11T08:54:45.071Z,99899.59
2023-03-11T09:01:17.421Z,99903.38
2023-03-11T09:03:23.585Z,99896.34
2023-03-11T09:06:02.219Z,99900.66
2023-03-11T09:08:35.869Z,99880.75
2023-03-11T09:11:06.540Z,99908.47
2023-03-11T09:16:41.210Z,99875.25
2023-03-11T09:19:14.608Z,99895.63
2023-03-11T09:21:46.359Z,99893.50
2023-03-11T09:24:18.084Z,99899.38
2023-03-11T09:26:52.192Z,99894.88
2023-03-11T09:29:21.166Z,99888.69
2023-03-11T09:31:50.184Z,99893.75
2023-03-11T09:34:18.784Z,99896.25
2023-03-11T09:36:48.559Z,99892.44
2023-03-11T09:39:21.805Z,99886.84
2023-03-11T09:45:29.768Z,99891.72
2023-03-11T09:48:22.828Z,99896.94
2023-03-11T09:55:21.779Z,99870.94
2023-03-11T09:57:44.906Z,99884.03
2023-03-11T10:00:21.892Z,99883.34
2023-03-11T10:03:01.229Z,99864.75
2023-03-11T10:05:46.858Z,99875.69
2023-03-11T10:09:19.770Z,99878.84
2023-03-11T10:12:57.851Z,99884.31
2023-03-11T10:15:54.568Z,99881.75
2023-03-11T10:19:22.702Z,99884.50
2023-03-11T10:22:08.718Z,99886.13
2023-03-11T10:25:02.989Z,99885.81
2023-03-11T10:27:51.788Z,99885.25
2023-03-11T10:30:30.005Z,99888.97
2023-03-11T10:33:35.476Z,99881.19
2023-03-11T10:36:14.217Z,99878.81
2023-03-11T10:38:49.167Z,99874.53
2023-03-11T10:41:36.494Z,99880.59
2023-03-11T10:44:12.267Z,99880.50
2023-03-11T10:46:39.970Z,99889.16
2023-03-11T10:49:16.179Z,99879.25
2023-03-11T10:51:52.010Z,99880.56
2023-03-11T10:54:38.380Z,99874.16
2023-03-11T10:57:38.901Z,99889.06
2023-03-11T11:00:12.434Z,99882.59
2023-03-11T11:02:53.162Z,99883.88
2023-03-11T11:05:28.525Z,99885.31
2023-03-11T11:08:04.006Z,99896.06
2023-03-11T11:10:32.838Z,99888.69
2023-03-11T11:13:18.350Z,99896.19
2023-03-11T11:15:52.123Z,99898.00
2023-03-11T11:18:26.723Z,99888.22
2023-03-11T11:21:37.351Z,99887.72
2023-03-11T11:24:27.720Z,99883.56
2023-03-11T11:27:28.481Z,99887.97
2023-03-11T11:30:12.351Z,99889.06
2023-03-11T11:32:40.212Z,99897.97
2023-03-11T11:35:17.157Z,99890.56
2023-03-11T11:38:02.616Z,99873.94
2023-03-11T11:40:32.988Z,99873.19
2023-03-11T11:43:07.336Z,99881.06
2023-03-11T11:45:44.267Z,99879.38
2023-03-11T11:48:28.143Z,99868.03
2023-03-11T11:51:02.944Z,99862.94
2023-03-11T11:54:25.987Z,99871.72
2023-03-11T11:56:56.672Z,99876.97
2023-03-11T11:59:25.583Z,99862.75
2023-03-11T12:02:34.052Z,99859.91
2023-03-11T12:05:29.183Z,99866.03
2023-03-11T12:08:22.839Z,99866.09
2023-03-11T12:11:10.325Z,99870.44
2023-03-11T12:13:51.111Z,99877.41
2023-03-11T12:16:41.666Z,99869.66
2023-03-11T12:19:12.091Z,99870.69
2023-03-11T12:22:22.855Z,99862.75
2023-03-11T12:24:56.501Z,99860.94
2023-03-11T12:27:33.141Z,99858.97
2023-03-11T12:30:14.277Z,99864.00
2023-03-11T12:32:53.946Z,99856.72
2023-03-11T12:35:27.705Z,99850.47
2023-03-11T12:38:18.286Z,99858.75
2023-03-11T12:41:02.347Z,99858.25
2023-03-11T12:43:35.579Z,99863.06
2023-03-11T12:46:06.015Z,99856.63
2023-03-11T12:48:46.605Z,99856.22
2023-03-11T12:51:26.693Z,99855.38
2023-03-11T12:53:57.444Z,99845.19
2023-03-11T12:56:42.422Z,99850.63
2023-03-11T12:59:31.145Z,99841.03
2023-03-11T13:02:17.552Z,99846.06
2023-03-11T13:05:19.079Z,99834.03
2023-03-11T13:07:53.022Z,99832.47
2023-03-11T13:10:45.209Z,99834.34
2023-03-11T13:13:25.161Z,99842.25
2023-03-11T13:15:53.419Z,99828.25
2023-03-11T13:18:30.486Z,99835.78
2023-03-11T13:21:00.950Z,99836.38
2023-03-11T13:23:40.661Z,99824.09
2023-03-11T13:26:40.587Z,99829.44
2023-03-11T13:29:32.647Z,99837.22
2023-03-11T13:32:28.799Z,99843.28
2023-03-11T13:35:39.936Z,99853.94
2023-03-11T13:38:23.653Z,99864.63
2023-03-11T13:40:53.339Z,99858.63
2023-03-11T13:43:24.126Z,99861.97
2023-03-11T13:46:30.537Z,99850.34
2023-03-11T13:49:42.648Z,99866.69
2023-03-11T13:52:22.078Z,99852.13
2023-03-11T13:55:18.182Z,99857.44
2023-03-11T13:58:24.898Z,99842.34
2023-03-11T14:01:01.870Z,99852.63
2023-03-11T14:03:40.488Z,99832.19
2023-03-11T14:06:30.562Z,99836.69
2023-03-11T14:08:58.440Z,99834.56
2023-03-11T14:11:31.750Z,99837.81
2023-03-11T14:13:59.822Z,99834.03
2023-03-11T14:16:36.213Z,99828.59
2023-03-11T14:19:13.824Z,99839.09
2023-03-11T14:21:51.503Z,99829.31
2023-03-11T14:24:29.121Z,99848.44
2023-03-11T14:27:01.604Z,99838.53
2023-03-11T14:29:42.526Z,99842.59
2023-03-11T14:32:34.529Z,99849.72
2023-03-11T14:35:02.806Z,99846.31
2023-03-11T14:37:38.758Z,99842.59
2023-03-11T14:40:39.512Z,99846.88
2023-03-11T14:43:10.697Z,99849.72
2023-03-11T14:45:42.009Z,99854.19
2023-03-11T14:48:40.129Z,99860.00
2023-03-11T14:51:19.977Z,99866.88
2023-03-11T14:54:17.167Z,99861.31
2023-03-11T14:56:52.768Z,99865.81
2023-03-11T14:59:28.835Z,99872.94
2023-03-11T15:02:03.743Z,99874.09
2023-03-11T15:04:37.824Z,99866.19
2023-03-11T15:07:06.437Z,99870.81
2023-03-11T15:09:40.797Z,99860.88
2023-03-11T15:12:39.835Z,99866.56
2023-03-11T15:15:29.043Z,99860.41
2023-03-11T15:17:59.959Z,99860.69
2023-03-11T15:20:33.732Z,99860.84
2023-03-11T15:23:07.718Z,99867.03
2023-03-11T15:25:38.968Z,99862.69
2023-03-11T15:28:27.166Z,99853.25
2023-03-11T15:31:20.664Z,99854.91
2023-03-11T15:33:51.486Z,99856.03
2023-03-11T15:36:39.569Z,99855.09
2023-03-11T15:39:30.466Z,99860.97
2023-03-11T15:42:07.853Z,99871.41
2023-03-11T15:44:56.297Z,99874.81
2023-03-11T15:47:24.059Z,99871.41
2023-03-11T15:49:52.047Z,99875.00
2023-03-11T15:52:20.440Z,99878.44
2023-03-11T15:54:55.379Z,99875.00
2023-03-11T15:57:30.656Z,99874.94
2023-03-11T16:00:24.138Z,99881.97
2023-03-11T16:02:52.308Z,99884.63
2023-03-11T16:05:23.981Z,99876.72
2023-03-11T16:07:52.065Z,99876.00
2023-03-11T16:10:24.223Z,99885.84
2023-03-11T16:12:55.339Z,99888.81
2023-03-11T16:15:36.999Z,99882.75
2023-03-11T16:18:10.277Z,99888.50
2023-03-11T16:20:53.450Z,99892.22
2023-03-11T16:23:30.718Z,99882.75
2023-03-11T16:26:03.028Z,99890.97
2023-03-11T16:28:31.180Z,99892.97
2023-03-11T16:31:01.916Z,99893.91
2023-03-11T16:33:29.951Z,99892.22
2023-03-11T16:35:58.003Z,99894.09
2023-03-11T16:38:25.983Z,99901.25
2023-03-11T16:41:02.644Z,99897.06
2023-03-11T16:43:33.763Z,99901.88
2023-03-11T16:46:01.736Z,99915.22
2023-03-11T16:48:29.570Z,99921.72
2023-03-11T16:50:57.550Z,99920.22
2023-03-11T16:53:26.368Z,99930.22
2023-03-11T16:55:54.515Z,99929.78
2023-03-11T16:58:22.610Z,99944.31
2023-03-11T17:00:50.426Z,99942.72
2023-03-11T17:03:21.817Z,99945.69
2023-03-11T17:05:49.833Z,99939.59
2023-03-11T17:08:18.308Z,99945.75
2023-03-11T17:10:46.668Z,99951.03
2023-03-11T17:13:17.743Z,99962.50
2023-03-11T17:16:00.852Z,99956.59
2023-03-11T17:18:29.513Z,99962.13
2023-03-11T17:20:57.356Z,99966.72
2023-03-11T17:23:25.683Z,99969.53
2023-03-11T17:25:53.411Z,99975.88
2023-03-11T17:28:22.079Z,99978.75
2023-03-11T17:30:50.028Z,99981.63
2023-03-11T17:33:17.883Z,99989.72
2023-03-11T17:35:47.176Z,99996.97
2023-03-11T17:38:16.594Z,99989.25
2023-03-11T17:40:44.645Z,99991.09
2023-03-11T17:43:12.480Z,100000.16
2023-03-11T17:45:42.258Z,100010.75
2023-03-11T17:48:10.169Z,100016.22
2023-03-11T17:50:38.948Z,100017.25
2023-03-11T17:53:08.359Z,100026.09
2023-03-11T17:55:40.106Z,100013.09
2023-03-11T17:58:08.674Z,100027.28
2023-03-11T18:00:37.289Z,100027.41
2023-03-11T18:03:05.120Z,100026.59
2023-03-11T18:05:32.884Z,100034.66
2023-03-11T18:08:00.601Z,100039.22
2023-03-11T18:10:28.900Z,100046.38
2023-03-11T18:12:56.748Z,100047.47
2023-03-11T18:15:24.628Z,100042.34
2023-03-11T18:17:52.509Z,100054.81
2023-03-11T18:20:20.591Z,100049.66
2023-03-11T18:22:48.419Z,100048.88
2023-03-11T18:25:16.333Z,100054.31
2023-03-11T18:27:44.559Z,100053.56
2023-03-11T18:30:14.421Z,100057.22
2023-03-11T18:32:42.346Z,100053.94
2023-03-11T18:35:10.907Z,100053.13
2023-03-11T18:37:38.866Z,100061.09
2023-03-11T18:40:07.652Z,100054.06
2023-03-11T18:42:35.599Z,100047.19
2023-03-11T18:45:03.807Z,100061.34
2023-03-11T18:47:35.712Z,100061.22
2023-03-11T18:50:06.147Z,100065.78
2023-03-11T18:52:33.941Z,100069.34
2023-03-11T18:55:01.824Z,100070.34
2023-03-11T18:57:29.530Z,100067.78
2023-03-11T19:00:00.416Z,100064.53
2023-03-11T19:02:28.249Z,100066.31
2023-03-11T19:04:56.044Z,100071.66
2023-03-11T19:07:23.834Z,100070.88
2023-03-11T19:09:51.780Z,100062.13
2023-03-11T19:12:19.591Z,100074.44
2023-03-11T19:14:47.299Z,100076.16
2023-03-11T19:17:18.170Z,100077.16
2023-03-11T19:19:46.112Z,100085.38
2023-03-11T19:22:13.919Z,100087.16
2023-03-11T19:24:41.770Z,100090.03
2023-03-11T19:27:09.640Z,100096.44
2023-03-11T19:29:37.593Z,100093.16
2023-03-11T19:32:05.908Z,100093.41
2023-03-11T19:34:33.874Z,100101.56
2023-03-11T19:37:01.584Z,100099.13
2023-03-11T19:39:29.397Z,100098.47
2023-03-11T19:41:58.790Z,100107.41
2023-03-11T19:44:26.477Z,100099.78
2023-03-11T19:46:54.598Z,100109.56
2023-03-11T19:49:22.430Z,100106.25
2023-03-11T19:51:51.825Z,100117.81
2023-03-11T19:54:20.196Z,100119.66
2023-03-11T19:56:48.813Z,100119.78
2023-03-11T19:59:17.101Z,100113.69
2023-03-11T20:01:45.207Z,100123.25
2023-03-11T20:04:15.067Z,100120.63
2023-03-11T20:06:43.688Z,100124.94
2023-03-11T20:09:13.064Z,100119.56
2023-03-11T20:11:42.569Z,100131.91
2023-03-11T20:14:11.744Z,100123.16
2023-03-11T20:16:39.982Z,100141.66
2023-03-11T20:19:07.934Z,100128.66
2023-03-11T20:21:40.305Z,100146.28
2023-03-11T20:24:08.333Z,100145.50
2023-03-11T20:26:38.060Z,100146.44
2023-03-11T20:29:06.269Z,100144.75
2023-03-11T20:31:34.547Z,100155.28
2023-03-11T20:34:03.824Z,100155.38
2023-03-11T20:36:33.613Z,100156.31
2023-03-11T20:39:02.267Z,100157.28
2023-03-11T20:41:37.599Z,100159.13
2023-03-11T20:44:10.589Z,100157.47
2023-03-11T20:46:38.646Z,100154.88
2023-03-11T20:49:06.871Z,100158.41
2023-03-11T20:51:34.955Z,100161.06
2023-03-11T20:54:03.011Z,100168.16
2023-03-11T20:56:31.008Z,100170.78
2023-03-11T20:58:59.381Z,100160.25
2023-03-11T21:01:30.079Z,100162.03
2023-03-11T21:04:01.999Z,100158.50
2023-03-11T21:06:37.600Z,100169.91
2023-03-11T21:09:11.220Z,100165.53
2023-03-11T21:11:39.404Z,100169.13
2023-03-11T21:14:08.327Z,100160.38
2023-03-11T21:16:37.825Z,100166.59
2023-03-11T21:19:08.634Z,100168.41
2023-03-11T21:21:37.347Z,100161.44
2023-03-11T21:24:05.934Z,100170.28
2023-03-11T21:26:34.112Z,100162.47
2023-03-11T21:29:01.956Z,100173.91
2023-03-11T21:31:30.180Z,100168.75
2023-03-11T21:34:01.038Z,100176.69
2023-03-11T21:36:29.764Z,100167.97
2023-03-11T21:38:57.799Z,100184.72
2023-03-11T21:41:27.674Z,100177.69
2023-03-11T21:43:57.133Z,100178.63
2023-03-11T21:46:31.656Z,100176.94
2023-03-11T21:49:00.451Z,100180.50
2023-03-11T21:51:28.947Z,100182.31
2023-03-11T21:53:56.860Z,100186.72
2023-03-11T21:56:44.818Z,100185.94
2023-03-11T21:59:12.661Z,100180.69
2023-03-11T22:01:40.853Z,100179.00
2023-03-11T22:04:08.900Z,100168.53
2023-03-11T22:06:36.839Z,100175.53
2023-03-11T22:09:05.306Z,100174.72
2023-03-11T22:11:33.183Z,100177.34
2023-03-11T22:14:01.279Z,100172.16
2023-03-11T22:16:30.414Z,100181.84
2023-03-11T22:18:58.488Z,100168.78
2023-03-11T22:21:26.742Z,100174.97
2023-03-11T22:23:54.716Z,100171.47
2023-03-11T22:26:22.824Z,100169.66
2023-03-11T22:28:50.644Z,100160.97
2023-03-11T22:31:18.970Z,100176.75
2023-03-11T22:33:47.909Z,100173.22
2023-03-11T22:36:15.719Z,100181.19
2023-03-11T22:38:44.915Z,100190.06
2023-03-11T22:41:19.190Z,100176.03
2023-03-11T22:43:47.380Z,100190.09
2023-03-11T22:46:15.133Z,100184.88
2023-03-11T22:48:43.095Z,100184.94
2023-03-11T22:51:10.984Z,100186.66
2023-03-11T22:53:39.339Z,100185.78
2023-03-11T22:56:14.214Z,100180.53
2023-03-11T22:58:43.857Z,100189.34
2023-03-11T23:01:12.673Z,100185.00
2023-03-11T23:03:42.846Z,100181.53
2023-03-11T23:06:16.093Z,100191.25
2023-03-11T23:08:44.622Z,100188.66
2023-03-11T23:11:18.004Z,100180.75
2023-03-11T23:13:45.790Z,100193.03
2023-03-11T23:16:21.430Z,100187.78
2023-03-11T23:18:53.460Z,100183.44
2023-03-11T23:21:28.932Z,100188.69
2023-03-11T23:23:58.350Z,100187.88
2023-03-11T23:26:27.248Z,100181.75
2023-03-11T23:28:55.685Z,100174.72
2023-03-11T23:31:25.850Z,100181.75
2023-03-11T23:33:53.871Z,100180.03
2023-03-11T23:36:24.460Z,100188.81
2023-03-11T23:38:53.189Z,100181.09
2023-03-11T23:41:23.560Z,100177.53
2023-03-11T23:43:51.656Z,100177.56
2023-03-11T23:46:19.855Z,100184.59
2023-03-11T23:48:48.322Z,100187.16
2023-03-11T23:51:16.965Z,100186.31
2023-03-11T23:53:44.957Z,100180.19
2023-03-11T23:56:17.094Z,100173.19
2023-03-11T23:58:46.414Z,100168.78
